Time;durP1;ratioP1;P1;durP2;ratioP2;P2;SDS_P1;SDS_P2;PMS_P1;PMS_P2;Temp;Humidity;BMP_temperature;BMP_pressure;BME280_temperature;BME280_humidity;BME280_pressure;Samples;Min_cycle;Max_cycle;Signal;HPM_P1;HPM_P2
2022/06/02 04:03:00;;;;;;;11.80;9.82;;;9.40;99.90;;;;;;4901013;29;20462;-70
2022/06/02 04:05:50;;;;;;;11.60;10.40;;;9.40;99.90;;;;;;4907082;29;20293;-70
2022/06/02 04:08:38;;;;;;;10.32;9.40;;;9.40;99.90;;;;;;4916866;29;20219;-70
2022/06/02 04:11:23;;;;;;;12.57;10.52;;;9.50;99.90;;;;;;4904985;29;20644;-70
2022/06/02 04:14:04;;;;;;;11.35;10.18;;;9.50;99.90;;;;;;4911025;29;20202;-71
2022/06/02 04:16:48;;;;;;;12.68;10.07;;;9.60;99.90;;;;;;4914515;29;20211;-71
2022/06/02 04:22:55;;;;;;;15.95;14.13;;;9.80;99.90;;;;;;4902892;29;20218;-71
2022/06/02 04:25:37;;;;;;;11.55;10.55;;;10.60;99.90;;;;;;4913012;29;20226;-70
2022/06/02 04:28:12;;;;;;;8.27;7.60;;;11.40;99.90;;;;;;4914264;29;20210;-71
2022/06/02 04:30:46;;;;;;;7.20;6.70;;;12.30;99.90;;;;;;4914684;29;20497;-71
2022/06/02 04:33:19;;;;;;;7.30;6.83;;;12.90;99.90;;;;;;4916723;29;20562;-71
2022/06/02 04:35:57;;;;;;;6.20;5.90;;;13.50;99.90;;;;;;4911939;29;20471;-71
2022/06/02 04:38:34;;;;;;;6.50;6.10;;;14.10;99.90;;;;;;4905807;29;20839;-71
2022/06/02 04:41:10;;;;;;;6.20;5.90;;;14.50;99.90;;;;;;4908907;29;20499;-71
2022/06/02 04:43:46;;;;;;;6.30;6.00;;;15.00;99.90;;;;;;4915224;29;20474;-71
2022/06/02 04:46:29;;;;;;;6.63;6.23;;;15.50;99.90;;;;;;4903508;29;20467;-72
2022/06/02 04:49:02;;;;;;;6.00;5.60;;;15.90;99.90;;;;;;4909894;29;20462;-72
2022/06/02 04:51:43;;;;;;;6.30;6.00;;;16.20;99.90;;;;;;4904443;29;20492;-72
2022/06/02 04:54:25;;;;;;;6.80;6.40;;;16.30;99.90;;;;;;4910478;29;20501;-70
2022/06/02 04:56:58;;;;;;;6.97;6.53;;;16.60;99.90;;;;;;4916549;29;20459;-71
2022/06/02 04:59:32;;;;;;;6.60;6.30;;;16.70;99.90;;;;;;4913246;29;21063;-71
2022/06/02 05:02:06;;;;;;;7.13;6.73;;;16.80;99.90;;;;;;4900406;29;20510;-70
2022/06/02 05:04:51;;;;;;;7.17;6.77;;;16.80;99.90;;;;;;4910983;29;21033;-70
2022/06/02 05:07:25;;;;;;;6.63;6.33;;;17.30;99.90;;;;;;4911772;29;20466;-71
2022/06/02 05:10:06;;;;;;;7.70;7.23;;;17.50;99.90;;;;;;4909937;29;20475;-69
2022/06/02 05:12:45;;;;;;;7.13;6.77;;;17.60;99.90;;;;;;4897086;29;21012;-69
2022/06/02 05:15:19;;;;;;;6.47;6.17;;;17.60;99.90;;;;;;4905169;29;20466;-69
2022/06/02 05:18:03;;;;;;;7.30;7.00;;;17.90;99.90;;;;;;4916288;29;20458;-70
2022/06/02 05:20:50;;;;;;;7.00;6.50;;;18.30;99.90;;;;;;4913438;29;20648;-71
2022/06/02 05:23:45;;;;;;;6.50;6.10;;;18.60;99.90;;;;;;4905474;29;20473;-69
2022/06/02 05:26:48;;;;;;;9.40;8.80;;;18.90;99.90;;;;;;4905996;29;20502;-69
2022/06/02 05:29:36;;;;;;;6.30;5.90;;;19.00;99.90;;;;;;4897306;29;20468;-70
2022/06/02 05:32:22;;;;;;;6.00;5.80;;;19.30;99.90;;;;;;4910573;29;20856;-70
2022/06/02 05:35:26;;;;;;;6.47;6.17;;;19.40;99.90;;;;;;4900161;29;20495;-69
2022/06/02 05:38:18;;;;;;;6.20;5.90;;;19.80;99.90;;;;;;4915687;29;20472;-69
2022/06/02 05:40:54;;;;;;;5.57;5.27;;;19.80;99.90;;;;;;4910245;29;20501;-69
2022/06/02 05:43:34;;;;;;;5.17;4.87;;;19.60;99.90;;;;;;4897078;29;20467;-70
2022/06/02 05:46:17;;;;;;;6.17;5.87;;;19.90;99.90;;;;;;4904142;29;20490;-70
2022/06/02 05:48:55;;;;;;;5.47;5.27;;;19.80;99.90;;;;;;4906642;29;20937;-71
2022/06/02 05:51:29;;;;;;;5.23;5.00;;;19.60;99.90;;;;;;4905382;29;20505;-70
2022/06/02 05:54:10;;;;;;;4.53;4.43;;;19.40;99.90;;;;;;4908417;29;20477;-71
2022/06/02 05:56:47;;;;;;;5.40;5.17;;;19.90;99.90;;;;;;4904444;29;20819;-71
2022/06/02 05:59:48;;;;;;;5.20;4.90;;;19.80;99.90;;;;;;4907015;29;20503;-70
2022/06/02 06:02:51;;;;;;;5.40;5.10;;;19.00;99.90;;;;;;4904055;29;20506;-71
2022/06/02 06:05:26;;;;;;;5.10;4.90;;;18.50;99.90;;;;;;4880835;29;20854;-70
2022/06/02 06:08:14;;;;;;;5.60;5.30;;;18.30;99.90;;;;;;4909159;29;20475;-70
2022/06/02 06:10:48;;;;;;;5.17;4.97;;;17.70;99.90;;;;;;4909328;29;20840;-70
2022/06/02 06:13:34;;;;;;;5.40;5.00;;;17.00;99.90;;;;;;4895357;29;20455;-70
2022/06/02 06:16:08;;;;;;;5.87;5.57;;;16.50;99.90;;;;;;4902475;29;20961;-70
2022/06/02 06:18:48;;;;;;;4.53;4.33;;;16.30;99.90;;;;;;4905075;29;20458;-69
2022/06/02 06:21:28;;;;;;;5.27;4.90;;;15.90;99.90;;;;;;4908380;29;20852;-69
2022/06/02 06:24:15;;;;;;;5.07;4.77;;;15.70;99.90;;;;;;4903054;29;20477;-70
2022/06/02 06:26:52;;;;;;;4.63;4.43;;;15.50;99.90;;;;;;4895550;29;20953;-69
2022/06/02 06:29:38;;;;;;;4.67;4.33;;;15.40;99.90;;;;;;4899917;29;20538;-70
2022/06/02 06:32:19;;;;;;;4.20;3.90;;;15.90;99.90;;;;;;4913231;29;20490;-70
2022/06/02 06:34:51;;;;;;;4.50;4.30;;;17.20;99.90;;;;;;4909649;29;20472;-69
2022/06/02 06:37:48;;;;;;;3.70;3.60;;;17.90;99.90;;;;;;4910349;29;20467;-70
2022/06/02 06:40:28;;;;;;;4.47;3.57;;;18.30;99.90;;;;;;4916008;29;20503;-71
2022/06/02 06:43:04;;;;;;;3.27;3.17;;;18.10;99.90;;;;;;4897323;29;20543;-71
2022/06/02 06:45:36;;;;;;;3.23;3.13;;;17.60;99.90;;;;;;4898679;29;20529;-70
2022/06/02 06:48:13;;;;;;;3.47;2.17;;;17.30;99.90;;;;;;4908641;29;20477;-70
2022/06/02 06:50:47;;;;;;;2.13;2.10;;;16.90;99.90;;;;;;4908356;29;20593;-71
2022/06/02 06:53:40;;;;;;;2.17;1.93;;;16.40;99.90;;;;;;4908060;29;20481;-70
2022/06/02 06:56:14;;;;;;;1.70;1.60;;;16.10;99.90;;;;;;4912336;29;20889;-70
2022/06/02 06:58:54;;;;;;;2.10;2.00;;;16.20;99.90;;;;;;4909790;29;20474;-70
2022/06/02 07:01:28;;;;;;;1.70;1.70;;;16.90;99.90;;;;;;4871210;29;1049614;-70
2022/06/02 07:04:06;;;;;;;3.17;1.60;;;17.40;99.90;;;;;;4908117;29;20475;-70
2022/06/02 07:06:45;;;;;;;1.63;1.47;;;17.90;99.90;;;;;;4908664;29;20502;-71
2022/06/02 07:09:18;;;;;;;1.80;1.70;;;18.40;99.90;;;;;;4909881;29;20572;-70
2022/06/02 07:14:43;;;;;;;1.60;1.50;;;19.00;99.90;;;;;;4918363;29;20483;-72
2022/06/02 07:17:18;;;;;;;2.30;1.50;;;18.80;99.90;;;;;;4922051;29;20470;-71
2022/06/02 07:19:59;;;;;;;1.50;1.40;;;18.70;99.90;;;;;;4918136;29;20466;-71
2022/06/02 07:22:31;;;;;;;1.73;1.73;;;19.10;99.90;;;;;;4914175;29;20486;-73
2022/06/02 07:25:03;;;;;;;1.80;1.70;;;19.60;99.90;;;;;;4923376;29;20490;-71
2022/06/02 07:27:37;;;;;;;2.13;1.97;;;19.60;99.90;;;;;;4919388;29;20478;-72
2022/06/02 07:30:20;;;;;;;1.50;1.50;;;19.20;99.90;;;;;;4911857;29;20478;-72
2022/06/02 07:33:17;;;;;;;1.60;1.60;;;18.90;99.90;;;;;;4904284;29;20472;-73
2022/06/02 07:36:09;;;;;;;1.63;1.63;;;18.90;99.90;;;;;;4914785;29;20482;-72
2022/06/02 07:38:51;;;;;;;1.80;1.80;;;18.70;99.90;;;;;;4911379;29;20470;-72
2022/06/02 07:41:36;;;;;;;1.87;1.87;;;18.70;99.90;;;;;;4910710;29;20580;-71
2022/06/02 07:44:25;;;;;;;1.70;1.70;;;18.70;99.90;;;;;;4906685;29;20509;-72
2022/06/02 07:47:07;;;;;;;1.60;1.60;;;18.60;99.90;;;;;;4902392;29;20487;-71
2022/06/02 07:49:48;;;;;;;1.80;1.70;;;18.60;99.90;;;;;;4905895;29;20481;-71
2022/06/02 07:52:23;;;;;;;1.60;1.60;;;18.60;99.90;;;;;;4902111;29;20494;-73
2022/06/02 07:55:01;;;;;;;2.00;1.90;;;18.40;99.90;;;;;;4913550;29;20485;-71
2022/06/02 07:57:40;;;;;;;1.70;1.70;;;18.30;99.90;;;;;;4913636;29;20474;-72
2022/06/02 08:00:16;;;;;;;1.83;1.63;;;18.30;99.90;;;;;;4912708;29;20501;-71
2022/06/02 08:03:08;;;;;;;1.47;1.47;;;18.00;99.90;;;;;;4912855;29;20466;-70
2022/06/02 08:05:41;;;;;;;2.63;1.73;;;17.70;99.90;;;;;;4905248;29;21161;-71
2022/06/02 08:08:17;;;;;;;1.60;1.50;;;17.70;99.90;;;;;;4909793;29;20963;-72
2022/06/02 08:10:56;;;;;;;2.17;2.00;;;17.70;99.90;;;;;;4904191;29;20875;-72
2022/06/02 08:13:31;;;;;;;1.90;1.90;;;17.50;99.90;;;;;;4909322;29;20526;-72
2022/06/02 08:16:04;;;;;;;2.33;2.20;;;17.30;99.90;;;;;;4909114;29;20955;-72
2022/06/02 08:19:00;;;;;;;1.80;1.80;;;17.10;99.90;;;;;;4911084;29;20474;-72
2022/06/02 08:21:31;;;;;;;2.30;2.20;;;17.00;99.90;;;;;;4902515;29;20805;-72
2022/06/02 08:24:32;;;;;;;1.70;1.70;;;17.00;99.90;;;;;;4904940;29;20478;-72
2022/06/02 08:27:12;;;;;;;1.70;1.70;;;16.90;99.90;;;;;;4906635;29;20482;-72
2022/06/02 08:29:53;;;;;;;1.50;1.47;;;16.90;99.90;;;;;;4904826;29;20482;-72
2022/06/02 08:32:41;;;;;;;1.67;1.63;;;17.10;99.90;;;;;;4913333;29;20493;-72
2022/06/02 08:35:16;;;;;;;2.10;2.00;;;17.70;99.90;;;;;;4900804;29;20498;-72
2022/06/02 08:37:56;;;;;;;1.70;1.70;;;18.10;99.90;;;;;;4912997;29;20566;-72
2022/06/02 08:41:28;;;;;;;1.60;1.53;;;18.00;99.90;;;;;;4909684;29;20488;-72
2022/06/02 08:44:23;;;;;;;2.63;2.00;;;17.80;99.90;;;;;;4908982;29;20554;-72
2022/06/02 08:47:20;;;;;;;1.40;1.40;;;18.30;99.90;;;;;;4911360;29;20528;-72
2022/06/02 08:50:20;;;;;;;1.20;1.20;;;18.80;99.90;;;;;;4898918;29;20474;-70
2022/06/02 08:53:19;;;;;;;1.60;1.50;;;19.00;99.90;;;;;;4915665;29;20467;-73
2022/06/02 08:56:13;;;;;;;1.50;1.50;;;18.70;99.90;;;;;;4907280;29;20494;-71
2022/06/02 08:59:34;;;;;;;1.80;1.80;;;18.20;99.90;;;;;;4906118;29;20479;-72
2022/06/02 09:02:34;;;;;;;1.93;1.73;;;18.00;99.90;;;;;;4857357;29;21008;-72
2022/06/02 09:05:40;;;;;;;1.53;1.50;;;17.90;99.90;;;;;;4890476;29;20478;-72
2022/06/02 09:08:17;;;;;;;1.70;1.70;;;17.60;99.90;;;;;;4911409;29;20473;-71
2022/06/02 09:10:57;;;;;;;1.70;1.60;;;17.30;99.90;;;;;;4906392;29;20495;-71
2022/06/02 09:13:46;;;;;;;1.80;1.80;;;17.10;99.90;;;;;;4906328;29;20478;-71
2022/06/02 09:16:21;;;;;;;2.00;1.87;;;17.20;99.90;;;;;;4907900;29;20955;-70
2022/06/02 09:19:10;;;;;;;1.33;1.33;;;17.50;99.90;;;;;;4910168;29;20566;-70
2022/06/02 09:22:00;;;;;;;1.50;1.50;;;17.90;99.90;;;;;;4910373;29;20494;-70
2022/06/02 09:24:29;;;;;;;1.30;1.30;;;18.10;99.90;;;;;;4889086;29;20463;-70
2022/06/02 09:27:35;;;;;;;1.67;1.57;;;18.10;99.90;;;;;;4907098;29;20494;-71
2022/06/02 09:30:06;;;;;;;1.60;1.37;;;18.20;99.90;;;;;;4867871;29;20477;-71
2022/06/02 09:32:51;;;;;;;1.53;1.53;;;18.10;99.90;;;;;;4896846;29;20501;-71
2022/06/02 09:35:25;;;;;;;2.00;2.00;;;18.00;99.90;;;;;;4901669;29;20467;-70
2022/06/02 09:38:35;;;;;;;1.87;1.87;;;17.80;99.90;;;;;;4910068;29;20558;-71
2022/06/02 09:41:21;;;;;;;2.13;2.13;;;17.60;99.90;;;;;;4904773;29;20495;-71
2022/06/02 09:44:01;;;;;;;1.63;1.63;;;17.50;99.90;;;;;;4909769;29;20571;-71
2022/06/02 09:47:18;;;;;;;1.30;1.30;;;17.50;99.90;;;;;;4911190;29;20498;-72
2022/06/02 09:50:27;;;;;;;1.70;1.60;;;17.80;99.90;;;;;;4907567;29;20475;-72
2022/06/02 09:53:15;;;;;;;1.27;1.13;;;18.10;99.90;;;;;;4903491;29;20975;-72
2022/06/02 09:55:58;;;;;;;2.10;2.00;;;18.10;99.90;;;;;;4905372;29;20485;-72
2022/06/02 09:58:53;;;;;;;2.23;2.00;;;17.70;99.90;;;;;;4907495;29;20467;-71
2022/06/02 10:01:33;;;;;;;1.93;1.83;;;17.50;99.90;;;;;;4908302;29;20821;-72
2022/06/02 10:04:36;;;;;;;1.90;1.30;;;17.20;99.90;;;;;;4909190;29;20562;-72
2022/06/02 10:07:35;;;;;;;1.50;1.40;;;17.40;99.90;;;;;;4910308;29;20513;-71
2022/06/02 10:10:23;;;;;;;2.00;1.83;;;17.60;99.90;;;;;;4908805;29;20976;-71
2022/06/02 10:13:26;;;;;;;1.10;1.10;;;18.00;99.90;;;;;;4904287;29;20851;-71
2022/06/02 10:16:20;;;;;;;1.77;1.77;;;17.90;99.90;;;;;;4888496;29;20462;-71
2022/06/02 10:19:11;;;;;;;1.30;1.30;;;17.70;99.90;;;;;;4953969;23;20575;-69
2022/06/02 10:21:52;;;;;;;2.93;1.53;;;17.40;99.90;;;;;;4946579;28;20483;-69
2022/06/02 10:24:58;;;;;;;2.03;2.03;;;17.30;99.90;;;;;;4948601;29;20549;-69
2022/06/02 10:28:07;;;;;;;1.80;1.70;;;17.50;99.90;;;;;;4945597;28;20506;-69
2022/06/02 10:31:12;;;;;;;1.70;1.57;;;17.60;99.90;;;;;;4957332;28;20467;-69
2022/06/02 10:34:15;;;;;;;2.43;1.80;;;17.70;99.90;;;;;;4948771;28;21030;-70
2022/06/02 10:36:58;;;;;;;2.33;2.23;;;17.90;99.90;;;;;;4949634;28;20877;-70
2022/06/02 10:39:48;;;;;;;1.60;1.60;;;17.90;99.90;;;;;;4950839;28;20500;-70
2022/06/02 10:42:34;;;;;;;2.00;1.60;;;17.90;99.90;;;;;;4950041;28;20480;-70
2022/06/02 10:45:35;;;;;;;1.63;1.63;;;17.90;99.90;;;;;;4945451;28;20477;-72
2022/06/02 10:48:39;;;;;;;2.10;2.00;;;18.00;99.90;;;;;;4912908;28;20484;-71
2022/06/02 10:51:38;;;;;;;2.33;2.13;;;17.90;99.90;;;;;;4944945;29;20472;-69
2022/06/02 10:54:37;;;;;;;3.47;1.80;;;17.70;99.90;;;;;;4947212;28;20461;-70
2022/06/02 10:57:20;;;;;;;1.67;1.57;;;17.50;99.90;;;;;;4950170;29;20464;-69
2022/06/02 11:00:20;;;;;;;1.93;1.93;;;17.50;99.90;;;;;;4934958;29;20472;-69
2022/06/02 11:03:27;;;;;;;2.40;1.97;;;17.50;99.90;;;;;;4949870;28;20473;-69
2022/06/02 11:06:36;;;;;;;1.60;1.60;;;17.60;99.90;;;;;;4944215;28;20833;-70
2022/06/02 11:09:35;;;;;;;1.67;1.57;;;17.70;99.90;;;;;;4944064;29;20488;-70
2022/06/02 11:12:44;;;;;;;1.70;1.70;;;18.00;99.90;;;;;;4951648;29;20469;-70
2022/06/02 11:15:39;;;;;;;2.73;1.83;;;18.10;99.90;;;;;;4944463;29;20479;-69
2022/06/02 11:18:36;;;;;;;1.80;1.80;;;18.20;99.90;;;;;;4937621;29;20505;-69
2022/06/02 11:21:23;;;;;;;2.30;1.60;;;18.20;99.90;;;;;;4939966;29;20492;-70
2022/06/02 11:24:04;;;;;;;1.20;1.20;;;18.30;99.90;;;;;;4941882;29;20517;-70
2022/06/02 11:27:31;;;;;;;1.87;1.87;;;18.30;99.90;;;;;;4949212;28;20551;-68
2022/06/02 11:30:32;;;;;;;3.17;2.30;;;18.20;99.90;;;;;;4884917;29;20475;-69
2022/06/02 11:33:29;;;;;;;1.40;1.40;;;18.30;99.90;;;;;;4935572;28;20467;-69
2022/06/02 11:36:26;;;;;;;2.23;2.13;;;18.30;99.90;;;;;;4944344;29;20457;-69
2022/06/02 11:39:36;;;;;;;1.30;1.30;;;18.10;99.90;;;;;;4946112;29;20488;-70
2022/06/02 11:42:17;;;;;;;1.33;1.23;;;18.30;99.90;;;;;;4907063;29;21028;-69
2022/06/02 11:45:03;;;;;;;1.90;1.90;;;18.60;99.90;;;;;;4944832;28;20480;-69
2022/06/02 11:47:46;;;;;;;1.73;1.60;;;18.80;99.90;;;;;;4950443;29;20493;-70
2022/06/02 11:50:52;;;;;;;2.10;2.00;;;18.70;99.90;;;;;;4941527;28;20803;-68
2022/06/02 11:53:45;;;;;;;1.73;1.63;;;18.70;99.90;;;;;;4950553;28;20464;-72
2022/06/02 11:56:19;;;;;;;1.87;1.77;;;18.60;99.90;;;;;;4951687;28;20492;-68
2022/06/02 11:59:20;;;;;;;1.90;1.90;;;18.80;99.90;;;;;;4955774;28;20484;-71
2022/06/02 12:02:14;;;;;;;1.87;1.77;;;18.90;99.90;;;;;;4940933;29;20469;-69
2022/06/02 12:05:13;;;;;;;1.70;1.67;;;18.70;99.90;;;;;;4947526;29;20480;-68
2022/06/02 12:08:07;;;;;;;2.03;2.03;;;18.60;99.90;;;;;;4967693;29;20531;-69
2022/06/02 12:11:13;;;;;;;1.60;1.50;;;18.60;99.90;;;;;;4979214;28;20460;-68
2022/06/02 12:14:01;;;;;;;1.93;1.80;;;18.60;99.90;;;;;;4979653;28;20460;-68
2022/06/02 12:16:46;;;;;;;1.23;1.20;;;18.70;99.90;;;;;;4979334;28;20480;-68
2022/06/02 12:19:58;;;;;;;1.83;1.50;;;18.90;99.90;;;;;;4959718;29;20485;-68
2022/06/02 12:23:01;;;;;;;1.50;1.50;;;19.10;99.90;;;;;;4940259;29;20465;-68
2022/06/02 12:25:44;;;;;;;2.67;1.70;;;19.10;99.90;;;;;;4935982;29;20474;-66
2022/06/02 12:28:33;;;;;;;1.77;1.77;;;18.70;99.90;;;;;;4949558;29;20495;-66
2022/06/02 12:31:37;;;;;;;1.37;1.37;;;18.60;99.90;;;;;;4954820;28;20894;-66
2022/06/02 12:34:22;;;;;;;1.67;1.67;;;18.50;99.90;;;;;;4953551;28;20472;-66
2022/06/02 12:37:06;;;;;;;1.67;1.67;;;18.50;99.90;;;;;;4952317;28;20462;-66
2022/06/02 12:39:54;;;;;;;2.00;2.00;;;18.50;99.90;;;;;;4972505;28;20555;-66
2022/06/02 12:42:58;;;;;;;2.10;2.00;;;18.50;99.90;;;;;;4974670;28;20448;-66
2022/06/02 12:45:46;;;;;;;1.50;1.50;;;18.50;99.90;;;;;;4974303;28;20522;-66
2022/06/02 12:48:51;;;;;;;2.30;2.00;;;18.70;99.90;;;;;;4957623;28;20497;-66
2022/06/02 12:52:02;;;;;;;2.07;2.07;;;18.60;99.90;;;;;;4954035;28;20495;-65
2022/06/02 12:55:00;;;;;;;2.17;2.07;;;18.60;99.90;;;;;;4919193;29;20493;-66
2022/06/02 12:57:56;;;;;;;3.60;3.03;;;18.50;99.90;;;;;;4916323;29;20852;-66
2022/06/02 13:00:50;;;;;;;1.60;1.50;;;18.70;99.90;;;;;;4954601;28;20468;-66
2022/06/02 13:03:59;;;;;;;1.60;1.60;;;18.60;99.90;;;;;;4956421;28;20547;-66
2022/06/02 13:06:55;;;;;;;1.40;1.40;;;18.50;99.90;;;;;;4953224;28;20484;-66
2022/06/02 13:09:50;;;;;;;2.00;1.90;;;18.60;99.90;;;;;;4936187;28;20470;-66
2022/06/02 13:12:49;;;;;;;1.73;1.73;;;18.80;99.90;;;;;;4958964;28;20456;-69
2022/06/02 13:15:37;;;;;;;1.27;1.27;;;18.80;99.90;;;;;;4954357;28;20469;-70
2022/06/02 13:18:41;;;;;;;2.13;1.90;;;18.80;99.90;;;;;;4953587;28;20492;-69
2022/06/02 13:21:56;;;;;;;1.70;1.70;;;18.70;99.90;;;;;;4953034;28;20457;-70
2022/06/02 13:24:39;;;;;;;1.40;1.40;;;18.80;99.90;;;;;;4954069;28;20464;-69
2022/06/02 13:27:39;;;;;;;1.50;1.50;;;18.70;99.90;;;;;;4954656;28;20827;-70
2022/06/02 13:30:29;;;;;;;1.67;1.63;;;18.70;99.90;;;;;;4934464;29;20458;-69
2022/06/02 13:33:28;;;;;;;2.23;1.70;;;18.70;99.90;;;;;;4951591;29;20465;-70
2022/06/02 13:36:24;;;;;;;1.83;1.53;;;18.70;99.90;;;;;;4953836;28;20456;-64
2022/06/02 13:39:17;;;;;;;1.67;1.57;;;18.80;99.90;;;;;;4955353;28;20869;-64
2022/06/02 13:42:10;;;;;;;2.10;2.10;;;19.00;99.90;;;;;;4959421;28;20479;-64
2022/06/02 13:45:16;;;;;;;1.93;1.83;;;19.30;99.90;;;;;;4953873;28;20465;-64
2022/06/02 13:48:21;;;;;;;1.87;1.80;;;19.40;99.90;;;;;;4953692;28;20488;-64
2022/06/02 13:51:27;;;;;;;1.60;1.60;;;19.50;99.90;;;;;;4922553;29;20461;-64
2022/06/02 13:57:32;;;;;;;1.60;1.60;;;19.50;99.90;;;;;;4934845;29;20961;-65
2022/06/02 14:00:11;;;;;;;1.93;1.93;;;19.50;99.90;;;;;;4933993;29;20467;-65
2022/06/02 14:03:07;;;;;;;2.13;2.03;;;19.50;99.90;;;;;;4934735;29;20845;-64
2022/06/02 14:05:47;;;;;;;3.13;2.10;;;19.50;99.90;;;;;;4934387;29;20999;-64
2022/06/02 14:08:42;;;;;;;2.47;1.83;;;19.50;99.90;;;;;;4945827;29;20520;-64
2022/06/02 14:11:21;;;;;;;1.50;1.47;;;19.70;99.90;;;;;;4949966;28;20461;-64
2022/06/02 14:14:16;;;;;;;1.50;1.50;;;19.50;99.90;;;;;;4949556;29;20474;-64
2022/06/02 14:16:56;;;;;;;2.10;2.00;;;19.30;99.90;;;;;;4953840;28;20471;-63
2022/06/02 14:19:35;;;;;;;2.47;2.27;;;19.30;99.90;;;;;;4934687;29;20469;-65
2022/06/02 14:22:09;;;;;;;2.00;1.90;;;19.30;99.90;;;;;;4955268;28;20460;-64
2022/06/02 14:24:48;;;;;;;1.70;1.70;;;19.30;99.90;;;;;;4971338;28;20452;-64
2022/06/02 14:27:26;;;;;;;2.13;1.77;;;19.50;99.90;;;;;;4957937;28;20495;-65
2022/06/02 14:30:02;;;;;;;1.77;1.67;;;19.60;99.90;;;;;;4958300;28;20546;-62
2022/06/02 14:32:38;;;;;;;1.50;1.50;;;19.80;99.90;;;;;;4972354;28;20551;-64
2022/06/02 14:35:23;;;;;;;1.47;1.47;;;19.90;99.90;;;;;;4972752;28;20452;-69
2022/06/02 14:37:58;;;;;;;2.13;2.03;;;19.80;99.90;;;;;;4962865;28;20492;-72
2022/06/02 14:40:29;;;;;;;1.93;1.93;;;19.60;99.90;;;;;;4952585;28;20452;-72
2022/06/02 14:43:23;;;;;;;1.90;1.80;;;19.50;99.90;;;;;;4953256;28;20480;-69
2022/06/02 14:46:00;;;;;;;1.63;1.53;;;19.70;99.90;;;;;;4952835;28;20468;-68
2022/06/02 14:48:40;;;;;;;2.47;1.40;;;19.90;99.90;;;;;;4949301;28;20499;-69
2022/06/02 14:51:15;;;;;;;1.40;1.40;;;19.90;99.90;;;;;;4946492;28;20460;-70
2022/06/02 14:54:03;;;;;;;1.80;1.80;;;19.70;99.90;;;;;;4952341;28;20508;-70
2022/06/02 14:56:53;;;;;;;1.70;1.60;;;19.50;99.90;;;;;;4952823;28;20523;-69
2022/06/02 14:59:37;;;;;;;2.07;1.90;;;19.70;99.90;;;;;;4944164;28;20464;-69
2022/06/02 15:02:26;;;;;;;1.93;1.83;;;19.80;99.90;;;;;;4952938;28;20464;-69
2022/06/02 15:05:26;;;;;;;1.77;1.67;;;19.80;99.90;;;;;;4933929;29;20958;-69
2022/06/02 15:08:20;;;;;;;2.13;2.07;;;19.80;99.90;;;;;;4940475;29;20484;-69
2022/06/02 15:10:58;;;;;;;1.47;1.40;;;19.70;99.90;;;;;;4944981;29;20824;-70
2022/06/02 15:13:50;;;;;;;1.30;1.30;;;19.80;99.90;;;;;;4941932;29;20467;-68
2022/06/02 15:16:39;;;;;;;1.60;1.60;;;20.10;99.90;;;;;;4950346;28;20527;-68
2022/06/02 15:19:41;;;;;;;1.80;1.80;;;20.10;99.90;;;;;;4959945;28;20610;-69
2022/06/02 15:22:44;;;;;;;1.60;1.60;;;19.90;99.90;;;;;;4941581;29;20474;-69
2022/06/02 15:25:18;;;;;;;1.63;1.63;;;19.70;99.90;;;;;;4947783;28;20472;-67
2022/06/02 15:28:06;;;;;;;1.80;1.70;;;19.60;99.90;;;;;;4939787;29;20497;-69
2022/06/02 15:30:53;;;;;;;1.40;1.40;;;19.60;99.90;;;;;;4952184;28;20464;-69
2022/06/02 15:34:01;;;;;;;1.93;1.83;;;19.50;99.90;;;;;;4950877;28;20483;-70
2022/06/02 15:37:03;;;;;;;3.23;1.63;;;19.50;99.90;;;;;;4955013;28;20537;-69
2022/06/02 15:40:26;;;;;;;1.50;1.50;;;19.70;99.90;;;;;;4947792;29;20479;-69
2022/06/02 15:43:31;;;;;;;1.90;1.90;;;20.00;99.90;;;;;;4911483;29;20475;-69
2022/06/02 15:46:43;;;;;;;1.67;1.60;;;20.20;99.90;;;;;;4908786;29;20467;-67
2022/06/02 15:49:52;;;;;;;2.50;2.30;;;20.50;99.90;;;;;;4952014;28;20492;-69
2022/06/02 15:53:05;;;;;;;1.70;1.70;;;20.60;99.90;;;;;;4936829;29;20552;-69
2022/06/02 15:56:17;;;;;;;1.50;1.50;;;20.70;99.90;;;;;;4956370;28;20956;-69
2022/06/02 15:59:17;;;;;;;1.60;1.50;;;20.80;99.90;;;;;;4922415;28;20513;-70
2022/06/02 16:02:22;;;;;;;2.00;1.90;;;20.80;99.90;;;;;;4954275;28;20468;-69
2022/06/02 16:05:27;;;;;;;2.03;1.93;;;20.80;99.90;;;;;;4943365;28;20464;-69
2022/06/02 16:08:13;;;;;;;1.67;1.60;;;20.80;99.90;;;;;;4952615;28;20479;-69
2022/06/02 16:11:17;;;;;;;1.53;1.53;;;20.90;99.90;;;;;;4954453;28;20471;-69
2022/06/02 16:14:32;;;;;;;2.07;1.97;;;20.90;99.90;;;;;;4951035;29;20999;-70
2022/06/02 16:17:42;;;;;;;1.90;1.80;;;21.10;99.90;;;;;;4953100;29;20492;-70
2022/06/02 16:20:53;;;;;;;1.90;1.80;;;21.20;99.90;;;;;;4950490;28;20530;-70
2022/06/02 16:23:41;;;;;;;1.37;1.37;;;21.20;99.90;;;;;;4908498;29;20469;-70
2022/06/02 16:26:33;;;;;;;2.03;2.03;;;21.10;99.90;;;;;;4950563;29;20460;-69
2022/06/02 16:29:55;;;;;;;2.00;1.93;;;21.00;99.90;;;;;;4976807;23;20507;-72
2022/06/02 16:33:01;;;;;;;2.27;1.80;;;21.00;99.90;;;;;;4959815;28;20518;-70
2022/06/02 16:35:43;;;;;;;1.93;1.83;;;20.80;99.90;;;;;;4970554;28;20885;-70
2022/06/02 16:38:17;;;;;;;2.33;2.10;;;20.60;99.90;;;;;;4975301;28;20463;-70
2022/06/02 16:40:54;;;;;;;1.60;1.60;;;20.60;99.90;;;;;;4964510;28;20474;-70
2022/06/02 16:43:53;;;;;;;1.47;1.47;;;20.30;99.90;;;;;;4970070;28;20479;-71
2022/06/02 16:46:58;;;;;;;1.83;1.73;;;20.00;99.90;;;;;;4970719;28;20469;-69
2022/06/02 16:49:52;;;;;;;1.90;1.80;;;19.90;99.90;;;;;;4953762;28;20499;-69
2022/06/02 16:52:47;;;;;;;1.80;1.80;;;19.90;99.90;;;;;;4959076;28;20464;-72
2022/06/02 16:55:25;;;;;;;2.63;1.83;;;19.90;99.90;;;;;;4931931;28;20464;-69
2022/06/02 16:58:18;;;;;;;1.73;1.63;;;19.80;99.90;;;;;;4962432;28;21095;-69
2022/06/02 17:00:53;;;;;;;1.80;1.70;;;19.90;99.90;;;;;;4959140;28;20549;-68
2022/06/02 17:03:36;;;;;;;1.90;1.80;;;19.70;99.90;;;;;;4978135;28;20471;-68
2022/06/02 17:06:40;;;;;;;2.27;2.07;;;19.80;99.90;;;;;;4969902;28;20467;-72
2022/06/02 17:09:33;;;;;;;2.60;1.50;;;19.90;99.90;;;;;;4940375;28;21035;-71
2022/06/02 17:12:03;;;;;;;1.70;1.70;;;19.90;99.90;;;;;;4962357;28;20462;-68
2022/06/02 17:14:39;;;;;;;1.57;1.57;;;19.90;99.90;;;;;;4969143;28;20469;-68
2022/06/02 17:17:28;;;;;;;2.03;2.03;;;19.70;99.90;;;;;;4973831;28;20470;-69
2022/06/02 17:20:16;;;;;;;1.97;1.87;;;19.40;99.90;;;;;;4968588;28;20814;-70
2022/06/02 17:23:08;;;;;;;1.80;1.70;;;19.40;99.90;;;;;;4959411;28;20472;-70
2022/06/02 17:26:13;;;;;;;1.80;1.80;;;19.40;99.90;;;;;;4961069;28;20845;-70
2022/06/02 17:29:00;;;;;;;2.83;2.40;;;19.50;99.90;;;;;;4936190;28;20950;-69
2022/06/02 17:31:59;;;;;;;1.50;1.50;;;19.50;99.90;;;;;;4970122;28;20451;-68
2022/06/02 17:34:38;;;;;;;1.80;1.70;;;19.50;99.90;;;;;;4961305;28;20483;-68
2022/06/02 17:37:32;;;;;;;1.53;1.53;;;19.50;99.90;;;;;;4969329;28;20475;-68
2022/06/02 17:40:21;;;;;;;2.50;1.83;;;19.50;99.90;;;;;;4966208;28;20491;-68
2022/06/02 17:43:03;;;;;;;2.00;1.90;;;19.50;99.90;;;;;;4961864;28;20474;-72
2022/06/02 17:45:55;;;;;;;2.30;2.10;;;19.40;99.90;;;;;;4969667;28;20466;-71
2022/06/02 17:48:40;;;;;;;1.50;1.40;;;19.30;99.90;;;;;;4963493;28;21022;-72
2022/06/02 17:51:37;;;;;;;2.37;1.67;;;19.20;99.90;;;;;;4965447;28;20555;-71
2022/06/02 17:54:33;;;;;;;1.90;1.90;;;19.20;99.90;;;;;;4959446;28;20468;-71
2022/06/02 17:57:28;;;;;;;1.90;1.80;;;19.20;99.90;;;;;;4967960;28;20483;-71
2022/06/02 18:00:11;;;;;;;2.43;1.97;;;19.10;99.90;;;;;;4963318;28;20496;-71
2022/06/02 18:02:42;;;;;;;2.30;1.97;;;19.00;99.90;;;;;;4978736;28;20558;-71
2022/06/02 18:05:47;;;;;;;2.07;1.50;;;18.90;99.90;;;;;;4972158;28;20463;-71
2022/06/02 18:08:52;;;;;;;1.57;1.47;;;18.70;99.90;;;;;;4966432;28;20494;-71
2022/06/02 18:12:01;;;;;;;1.70;1.60;;;18.50;99.90;;;;;;4961557;28;20814;-72
2022/06/02 18:15:10;;;;;;;1.57;1.47;;;18.40;99.90;;;;;;4962590;28;20468;-71
2022/06/02 18:18:04;;;;;;;2.33;1.40;;;18.30;99.90;;;;;;4909212;29;20681;-71
2022/06/02 18:20:48;;;;;;;1.67;1.57;;;18.20;99.90;;;;;;4969343;28;20463;-71
2022/06/02 18:23:48;;;;;;;1.70;1.63;;;18.10;99.90;;;;;;4958986;28;20473;-71
2022/06/02 18:26:18;;;;;;;1.40;1.40;;;18.00;99.90;;;;;;4969860;28;20793;-71
2022/06/02 18:29:19;;;;;;;1.80;1.80;;;17.80;99.90;;;;;;4959497;28;20498;-70
2022/06/02 18:32:14;;;;;;;1.63;1.63;;;17.70;99.90;;;;;;4959669;28;20518;-70
2022/06/02 18:34:57;;;;;;;1.73;1.67;;;17.70;99.90;;;;;;4959358;28;20468;-72
2022/06/02 18:37:56;;;;;;;1.90;1.90;;;17.60;99.90;;;;;;4964169;28;20474;-71
2022/06/02 18:40:57;;;;;;;1.27;1.20;;;17.60;99.90;;;;;;4970036;28;20859;-71
2022/06/02 18:43:46;;;;;;;1.93;1.73;;;17.40;99.90;;;;;;4959134;28;20832;-71
2022/06/02 18:46:38;;;;;;;2.17;1.97;;;17.30;99.90;;;;;;4971322;28;20464;-71
2022/06/02 18:49:39;;;;;;;1.90;1.90;;;17.20;99.90;;;;;;4969376;28;20582;-70
2022/06/02 18:52:32;;;;;;;2.50;1.60;;;17.10;99.90;;;;;;4960910;28;20468;-72